createdAt,value
2022-12-27T00:00:08.530Z,100.00
2022-12-27T00:02:38.656Z,100.00
2022-12-27T00:05:07.658Z,100.00
2022-12-27T00:07:34.827Z,100.00
2022-12-27T00:10:02.173Z,100.00
2022-12-27T00:12:29.228Z,100.00
2022-12-27T00:14:56.233Z,100.00
2022-12-27T00:17:23.276Z,100.00
2022-12-27T00:19:50.294Z,100.00
2022-12-27T00:22:17.322Z,100.00
2022-12-27T00:24:44.304Z,100.00
2022-12-27T00:27:11.681Z,100.00
2022-12-27T00:29:38.761Z,100.00
2022-12-27T00:32:05.970Z,100.00
2022-12-27T00:34:33.205Z,100.00
2022-12-27T00:37:00.280Z,100.00
2022-12-27T00:39:27.404Z,100.00
2022-12-27T00:41:54.415Z,100.00
2022-12-27T00:44:21.433Z,100.00
2022-12-27T00:46:48.439Z,100.00
2022-12-27T00:49:15.458Z,100.00
2022-12-27T00:51:42.476Z,100.00
2022-12-27T00:54:09.479Z,100.00
2022-12-27T00:56:36.588Z,100.00
2022-12-27T00:59:05.435Z,100.00
2022-12-27T01:01:36.131Z,100.00
2022-12-27T01:04:05.166Z,100.00
2022-12-27T01:06:34.951Z,100.00
2022-12-27T01:09:03.994Z,100.00
2022-12-27T01:11:31.998Z,100.00
2022-12-27T01:14:02.159Z,100.00
2022-12-27T01:16:31.905Z,100.00
2022-12-27T01:19:00.235Z,100.00
2022-12-27T01:21:30.742Z,100.00
2022-12-27T01:23:58.867Z,100.00
2022-12-27T01:26:26.028Z,100.00
2022-12-27T01:28:54.611Z,100.00
2022-12-27T01:31:25.815Z,100.00
2022-12-27T01:33:59.731Z,100.00
2022-12-27T01:36:29.416Z,100.00
2022-12-27T01:38:56.639Z,100.00
2022-12-27T01:41:55.566Z,100.00
2022-12-27T01:44:43.000Z,100.00
2022-12-27T01:47:17.213Z,100.00
2022-12-27T01:50:15.584Z,100.00
2022-12-27T01:53:06.034Z,100.00
2022-12-27T01:55:38.861Z,100.00
2022-12-27T01:58:22.377Z,100.00
2022-12-27T02:00:51.225Z,100.00
2022-12-27T02:03:54.177Z,100.00
2022-12-27T02:06:23.622Z,100.00
2022-12-27T02:09:07.378Z,100.00
2022-12-27T02:11:51.767Z,100.00
2022-12-27T02:14:58.656Z,100.00
2022-12-27T02:17:29.430Z,100.00
2022-12-27T02:20:14.335Z,100.00
2022-12-27T02:23:37.687Z,100.00
2022-12-27T02:26:27.957Z,100.00
2022-12-27T02:29:26.406Z,100.00
2022-12-27T02:32:24.609Z,100.00
2022-12-27T02:35:08.627Z,100.00
2022-12-27T02:38:04.060Z,100.00
2022-12-27T02:40:51.298Z,100.00
2022-12-27T02:43:37.336Z,100.00
2022-12-27T02:46:41.878Z,100.00
2022-12-27T02:49:50.259Z,100.00
2022-12-27T02:52:44.244Z,100.00
2022-12-27T02:55:19.984Z,100.00
2022-12-27T02:58:24.450Z,100.00
2022-12-27T03:01:30.999Z,100.00
2022-12-27T03:04:48.774Z,100.00
2022-12-27T03:07:55.811Z,100.00
2022-12-27T03:11:00.004Z,100.00
2022-12-27T03:13:59.163Z,100.00
2022-12-27T03:16:38.024Z,100.00
2022-12-27T03:19:57.301Z,100.00
2022-12-27T03:22:47.690Z,99.36
2022-12-27T03:25:29.193Z,97.67
2022-12-27T03:28:40.199Z,94.83
2022-12-27T03:31:47.605Z,88.69
2022-12-27T03:34:35.871Z,86.20
2022-12-27T03:37:49.307Z,85.62
2022-12-27T03:40:30.903Z,84.75
2022-12-27T03:43:12.898Z,83.55
2022-12-27T03:46:36.561Z,83.91
2022-12-27T03:49:39.937Z,83.67
2022-12-27T03:52:34.132Z,84.04
2022-12-27T03:55:02.427Z,83.85
2022-12-27T03:57:29.810Z,83.48
2022-12-27T03:59:57.104Z,83.31
2022-12-27T04:02:24.811Z,83.84
2022-12-27T04:04:52.103Z,84.42
2022-12-27T04:07:19.191Z,85.23
2022-12-27T04:10:04.972Z,85.19
2022-12-27T04:12:50.571Z,84.60
2022-12-27T04:15:36.159Z,84.89
2022-12-27T04:18:21.826Z,84.19
2022-12-27T04:21:07.700Z,84.16
2022-12-27T04:23:53.245Z,84.33
2022-12-27T04:26:38.690Z,84.31
2022-12-27T04:29:24.128Z,84.12
2022-12-27T04:32:09.792Z,84.67
2022-12-27T04:34:39.929Z,84.02
2022-12-27T04:37:07.183Z,84.37
2022-12-27T04:39:34.225Z,84.87
2022-12-27T04:42:19.989Z,84.96
2022-12-27T04:45:10.224Z,85.27
2022-12-27T04:47:59.011Z,85.06
2022-12-27T04:50:48.218Z,84.84
2022-12-27T04:53:40.382Z,84.84
2022-12-27T04:56:07.829Z,84.71
2022-12-27T04:58:35.074Z,85.58
2022-12-27T05:01:23.468Z,84.85
2022-12-27T05:03:53.283Z,85.73
2022-12-27T05:06:20.487Z,86.11
2022-12-27T05:09:07.284Z,85.19
2022-12-27T05:11:52.832Z,85.57
2022-12-27T05:14:19.863Z,85.21
2022-12-27T05:16:46.899Z,85.37
2022-12-27T05:19:15.415Z,84.96
2022-12-27T05:22:05.170Z,84.42
2022-12-27T05:24:51.682Z,84.87
2022-12-27T05:27:19.139Z,85.38
2022-12-27T05:29:47.557Z,86.01
2022-12-27T05:32:14.568Z,85.94
2022-12-27T05:34:42.010Z,85.97
2022-12-27T05:37:09.410Z,86.15
2022-12-27T05:39:36.579Z,85.67
2022-12-27T05:42:03.963Z,85.97
2022-12-27T05:44:31.007Z,86.21
2022-12-27T05:46:58.084Z,86.66
2022-12-27T05:49:25.151Z,87.20
2022-12-27T05:51:52.161Z,86.54
2022-12-27T05:54:19.290Z,85.96
2022-12-27T05:56:46.563Z,86.32
2022-12-27T05:59:13.586Z,86.65
2022-12-27T06:01:40.696Z,86.55
2022-12-27T06:04:07.795Z,86.53
2022-12-27T06:06:35.416Z,86.37
2022-12-27T06:09:02.555Z,86.57
2022-12-27T06:11:29.622Z,86.50
2022-12-27T06:13:56.781Z,86.79
2022-12-27T06:16:23.988Z,86.48
2022-12-27T06:18:51.040Z,86.84
2022-12-27T06:21:21.888Z,86.66
2022-12-27T06:23:49.960Z,86.03
2022-12-27T06:26:24.441Z,85.69
2022-12-27T06:28:52.386Z,85.40
2022-12-27T06:31:20.659Z,85.25
2022-12-27T06:33:50.475Z,84.86
2022-12-27T06:36:21.886Z,84.77
2022-12-27T06:38:49.154Z,84.94
2022-12-27T06:41:18.419Z,85.06
2022-12-27T06:43:47.163Z,84.60
2022-12-27T06:46:18.445Z,84.91
2022-12-27T06:48:47.373Z,84.81
2022-12-27T06:51:18.015Z,84.80
2022-12-27T06:53:45.085Z,84.59
2022-12-27T06:56:16.964Z,84.35
2022-12-27T06:58:45.647Z,84.04
2022-12-27T07:01:18.631Z,83.52
2022-12-27T07:03:54.588Z,83.39
2022-12-27T07:06:23.482Z,83.33
2022-12-27T07:08:51.251Z,82.71
2022-12-27T07:11:19.592Z,82.89
2022-12-27T07:13:49.782Z,83.06
2022-12-27T07:16:20.749Z,82.68
2022-12-27T07:18:49.935Z,82.79
2022-12-27T07:21:22.281Z,83.03
2022-12-27T07:23:50.351Z,82.27
2022-12-27T07:26:29.918Z,82.45
2022-12-27T07:29:00.139Z,82.27
2022-12-27T07:31:31.142Z,81.69
2022-12-27T07:34:00.276Z,81.61
2022-12-27T07:36:33.227Z,81.19
2022-12-27T07:39:00.529Z,80.86
2022-12-27T07:41:27.681Z,80.41
2022-12-27T07:43:54.837Z,80.54
2022-12-27T07:46:25.806Z,80.15
2022-12-27T07:48:58.306Z,79.56
2022-12-27T07:51:27.439Z,78.31
2022-12-27T07:53:55.378Z,78.10
2022-12-27T07:56:26.811Z,77.41
2022-12-27T07:58:57.576Z,76.91
2022-12-27T08:01:28.122Z,76.10
2022-12-27T08:03:56.071Z,75.20
2022-12-27T08:06:33.700Z,75.24
2022-12-27T08:09:06.943Z,76.68
2022-12-27T08:11:34.003Z,76.44
2022-12-27T08:14:01.061Z,76.54
2022-12-27T08:16:28.211Z,77.14
2022-12-27T08:18:55.976Z,76.94
2022-12-27T08:21:23.960Z,77.04
2022-12-27T08:23:51.086Z,77.27
2022-12-27T08:26:18.142Z,77.94
2022-12-27T08:28:45.151Z,78.45
2022-12-27T08:31:13.609Z,78.60
2022-12-27T08:33:42.123Z,78.07
2022-12-27T08:38:59.746Z,78.37
2022-12-27T08:41:26.832Z,78.57
2022-12-27T08:43:53.952Z,78.39
2022-12-27T08:46:21.048Z,78.50
2022-12-27T08:48:49.678Z,78.40
2022-12-27T08:51:26.564Z,78.18
2022-12-27T20:19:09.140Z,74.26
2022-12-27T20:21:36.135Z,74.74
2022-12-27T20:24:03.412Z,74.80
2022-12-27T20:26:30.504Z,75.05
2022-12-27T20:28:59.376Z,75.12
2022-12-27T20:31:26.680Z,75.40
2022-12-27T20:33:55.827Z,75.05
2022-12-27T20:36:24.305Z,75.45
2022-12-27T20:38:51.367Z,75.51
2022-12-27T20:41:21.643Z,75.51
2022-12-27T20:43:53.770Z,76.36
2022-12-27T20:46:20.855Z,76.12
2022-12-27T20:48:47.986Z,76.31
2022-12-27T20:51:25.219Z,76.24
2022-12-27T20:53:57.976Z,76.25
2022-12-27T20:56:25.709Z,76.35
2022-12-27T20:58:53.795Z,76.06
2022-12-27T21:01:26.269Z,76.24
2022-12-27T21:03:56.223Z,76.37
2022-12-27T21:06:28.668Z,76.60
2022-12-27T21:08:58.207Z,76.19
2022-12-27T21:11:35.140Z,76.32
2022-12-27T21:14:04.424Z,76.36
2022-12-27T21:16:34.349Z,76.05
2022-12-27T21:19:05.308Z,76.56
2022-12-27T21:21:36.400Z,76.49
2022-12-27T21:24:05.748Z,75.88
2022-12-27T21:26:36.792Z,76.17
2022-12-27T21:29:07.897Z,75.97
2022-12-27T21:31:36.140Z,76.14
2022-12-27T21:34:04.106Z,76.46
2022-12-27T21:36:34.208Z,76.54
2022-12-27T21:39:02.151Z,76.67
2022-12-27T21:41:33.318Z,76.74
2022-12-27T21:44:00.746Z,76.40
2022-12-27T21:46:35.134Z,76.92
2022-12-27T21:49:08.729Z,76.85
2022-12-27T21:51:37.912Z,76.82
2022-12-27T21:54:05.279Z,76.99
2022-12-27T21:56:32.369Z,76.92
2022-12-27T21:59:00.523Z,77.01
2022-12-27T22:01:30.744Z,76.73
2022-12-27T22:04:17.689Z,76.86
2022-12-27T22:06:47.071Z,76.84
2022-12-27T22:09:15.144Z,76.75
2022-12-27T22:11:42.372Z,77.35
2022-12-27T22:14:09.404Z,77.38
2022-12-27T22:16:39.290Z,77.35
2022-12-27T22:19:12.067Z,77.72
2022-12-27T22:21:40.918Z,77.73
2022-12-27T22:24:19.327Z,77.83
2022-12-27T22:26:48.731Z,77.79
2022-12-27T22:29:15.968Z,77.72
2022-12-27T22:31:43.041Z,77.88
2022-12-27T22:34:10.072Z,78.04
2022-12-27T22:36:37.120Z,78.10
2022-12-27T22:39:04.532Z,77.96
2022-12-27T22:41:34.413Z,78.08
2022-12-27T22:44:08.170Z,78.14
2022-12-27T22:49:22.676Z,78.36
2022-12-27T22:51:49.704Z,78.44
2022-12-27T22:54:16.755Z,78.50
2022-12-27T22:56:43.815Z,78.58
2022-12-27T22:59:18.933Z,78.45
2022-12-27T23:01:46.292Z,78.55
2022-12-27T23:04:15.007Z,78.80
2022-12-27T23:06:42.557Z,78.59
2022-12-27T23:09:10.247Z,78.32
2022-12-27T23:11:41.124Z,78.72
2022-12-27T23:14:15.254Z,78.43
2022-12-27T23:16:45.736Z,78.54
2022-12-27T23:19:16.016Z,78.59
2022-12-27T23:21:43.167Z,78.76
2022-12-27T23:24:11.672Z,78.42
2022-12-27T23:26:39.074Z,78.30
2022-12-27T23:29:06.666Z,78.11
2022-12-27T23:31:35.455Z,78.42
2022-12-27T23:34:27.589Z,78.72
2022-12-27T23:36:57.234Z,78.96
2022-12-27T23:39:24.523Z,78.55
2022-12-27T23:41:51.606Z,78.48
2022-12-27T23:44:34.553Z,78.68
2022-12-27T23:47:04.533Z,78.33
2022-12-27T23:49:31.736Z,78.52
2022-12-27T23:51:58.947Z,78.68
2022-12-27T23:54:26.008Z,79.10
2022-12-27T23:56:53.086Z,79.00
2022-12-27T23:59:20.267Z,78.92
